sensor_id;sensor_type;location;lat;lon;timestamp;P1;durP1;ratioP1;P2;durP2;ratioP2
4102;SDS011;2065;49.790;9.620;2023-05-02T00:01:19;8.83;;;6.23;;
4102;SDS011;2065;49.790;9.620;2023-05-02T00:03:46;7.20;;;5.40;;
4102;SDS011;2065;49.790;9.620;2023-05-02T00:06:13;8.53;;;5.97;;
4102;SDS011;2065;49.790;9.620;2023-05-02T00:08:41;10.30;;;5.93;;
4102;SDS011;2065;49.790;9.620;2023-05-02T00:11:08;6.67;;;5.77;;
4102;SDS011;2065;49.790;9.620;2023-05-02T00:13:35;6.63;;;5.37;;
4102;SDS011;2065;49.790;9.620;2023-05-02T00:16:02;7.60;;;6.33;;
4102;SDS011;2065;49.790;9.620;2023-05-02T00:18:30;6.50;;;5.47;;
4102;SDS011;2065;49.790;9.620;2023-05-02T00:20:58;6.37;;;5.63;;
4102;SDS011;2065;49.790;9.620;2023-05-02T00:23:25;7.30;;;6.27;;
4102;SDS011;2065;49.790;9.620;2023-05-02T00:25:51;8.67;;;6.70;;
4102;SDS011;2065;49.790;9.620;2023-05-02T00:28:18;7.30;;;5.73;;
4102;SDS011;2065;49.790;9.620;2023-05-02T00:30:45;9.33;;;6.53;;
4102;SDS011;2065;49.790;9.620;2023-05-02T00:33:13;10.53;;;7.60;;
4102;SDS011;2065;49.790;9.620;2023-05-02T00:35:41;6.83;;;6.13;;
4102;SDS011;2065;49.790;9.620;2023-05-02T00:38:08;8.10;;;5.43;;
4102;SDS011;2065;49.790;9.620;2023-05-02T00:40:45;10.40;;;5.77;;
4102;SDS011;2065;49.790;9.620;2023-05-02T00:43:13;9.63;;;6.97;;
4102;SDS011;2065;49.790;9.620;2023-05-02T00:45:41;7.10;;;6.40;;
4102;SDS011;2065;49.790;9.620;2023-05-02T00:48:09;9.07;;;5.77;;
4102;SDS011;2065;49.790;9.620;2023-05-02T00:50:37;10.67;;;6.47;;
4102;SDS011;2065;49.790;9.620;2023-05-02T00:53:07;9.40;;;7.30;;
4102;SDS011;2065;49.790;9.620;2023-05-02T00:55:35;7.60;;;6.70;;
4102;SDS011;2065;49.790;9.620;2023-05-02T00:58:04;8.47;;;6.13;;
4102;SDS011;2065;49.790;9.620;2023-05-02T01:00:37;8.10;;;6.43;;
4102;SDS011;2065;49.790;9.620;2023-05-02T01:03:16;10.57;;;7.17;;
4102;SDS011;2065;49.790;9.620;2023-05-02T01:05:57;8.27;;;6.73;;
4102;SDS011;2065;49.790;9.620;2023-05-02T01:08:35;8.37;;;6.87;;
4102;SDS011;2065;49.790;9.620;2023-05-02T01:11:11;8.37;;;6.67;;
4102;SDS011;2065;49.790;9.620;2023-05-02T01:13:41;9.83;;;7.20;;
4102;SDS011;2065;49.790;9.620;2023-05-02T01:16:10;8.80;;;6.93;;
4102;SDS011;2065;49.790;9.620;2023-05-02T01:18:39;6.67;;;5.97;;
4102;SDS011;2065;49.790;9.620;2023-05-02T01:21:09;7.70;;;6.90;;
4102;SDS011;2065;49.790;9.620;2023-05-02T01:23:40;7.63;;;6.83;;
4102;SDS011;2065;49.790;9.620;2023-05-02T01:26:14;10.00;;;7.00;;
4102;SDS011;2065;49.790;9.620;2023-05-02T01:28:57;8.30;;;6.70;;
4102;SDS011;2065;49.790;9.620;2023-05-02T01:31:26;10.70;;;7.10;;
4102;SDS011;2065;49.790;9.620;2023-05-02T01:33:55;17.73;;;6.97;;
4102;SDS011;2065;49.790;9.620;2023-05-02T01:36:24;9.90;;;7.17;;
4102;SDS011;2065;49.790;9.620;2023-05-02T01:38:54;10.90;;;6.30;;
4102;SDS011;2065;49.790;9.620;2023-05-02T01:41:23;8.00;;;6.63;;
4102;SDS011;2065;49.790;9.620;2023-05-02T01:43:52;8.40;;;6.63;;
4102;SDS011;2065;49.790;9.620;2023-05-02T01:46:21;9.37;;;6.40;;
4102;SDS011;2065;49.790;9.620;2023-05-02T01:48:50;8.87;;;6.30;;
4102;SDS011;2065;49.790;9.620;2023-05-02T01:51:18;11.37;;;6.80;;
4102;SDS011;2065;49.790;9.620;2023-05-02T01:53:47;9.80;;;6.50;;
4102;SDS011;2065;49.790;9.620;2023-05-02T01:56:15;7.77;;;6.83;;
4102;SDS011;2065;49.790;9.620;2023-05-02T01:58:46;14.23;;;7.43;;
4102;SDS011;2065;49.790;9.620;2023-05-02T02:01:13;7.60;;;6.83;;
4102;SDS011;2065;49.790;9.620;2023-05-02T02:03:45;7.70;;;6.20;;
4102;SDS011;2065;49.790;9.620;2023-05-02T02:06:13;8.27;;;6.77;;
4102;SDS011;2065;49.790;9.620;2023-05-02T02:08:41;9.60;;;6.60;;
4102;SDS011;2065;49.790;9.620;2023-05-02T02:11:09;8.60;;;6.43;;
4102;SDS011;2065;49.790;9.620;2023-05-02T02:13:39;9.93;;;7.00;;
4102;SDS011;2065;49.790;9.620;2023-05-02T02:16:11;7.33;;;6.53;;
4102;SDS011;2065;49.790;9.620;2023-05-02T02:18:45;8.40;;;7.00;;
4102;SDS011;2065;49.790;9.620;2023-05-02T02:21:13;8.90;;;7.20;;
4102;SDS011;2065;49.790;9.620;2023-05-02T02:23:44;8.90;;;6.37;;
4102;SDS011;2065;49.790;9.620;2023-05-02T02:26:13;8.23;;;6.60;;
4102;SDS011;2065;49.790;9.620;2023-05-02T02:28:44;9.10;;;6.80;;
4102;SDS011;2065;49.790;9.620;2023-05-02T02:31:13;8.10;;;7.10;;
4102;SDS011;2065;49.790;9.620;2023-05-02T02:33:40;9.83;;;7.17;;
4102;SDS011;2065;49.790;9.620;2023-05-02T02:36:10;12.10;;;6.67;;
4102;SDS011;2065;49.790;9.620;2023-05-02T02:38:41;9.23;;;7.00;;
4102;SDS011;2065;49.790;9.620;2023-05-02T02:41:17;7.40;;;6.50;;
4102;SDS011;2065;49.790;9.620;2023-05-02T02:43:52;9.47;;;7.33;;
4102;SDS011;2065;49.790;9.620;2023-05-02T02:46:28;10.23;;;7.23;;
4102;SDS011;2065;49.790;9.620;2023-05-02T02:49:14;9.80;;;7.40;;
4102;SDS011;2065;49.790;9.620;2023-05-02T02:51:55;8.10;;;6.00;;
4102;SDS011;2065;49.790;9.620;2023-05-02T02:54:28;8.20;;;6.67;;
4102;SDS011;2065;49.790;9.620;2023-05-02T02:57:02;8.03;;;7.20;;
4102;SDS011;2065;49.790;9.620;2023-05-02T02:59:32;7.60;;;6.30;;
4102;SDS011;2065;49.790;9.620;2023-05-02T03:02:06;8.43;;;7.17;;
4102;SDS011;2065;49.790;9.620;2023-05-02T03:04:35;7.90;;;6.27;;
4102;SDS011;2065;49.790;9.620;2023-05-02T03:07:07;8.40;;;6.80;;
4102;SDS011;2065;49.790;9.620;2023-05-02T03:09:41;8.50;;;6.93;;
4102;SDS011;2065;49.790;9.620;2023-05-02T03:12:13;7.30;;;6.47;;
4102;SDS011;2065;49.790;9.620;2023-05-02T03:14:41;11.10;;;6.23;;
4102;SDS011;2065;49.790;9.620;2023-05-02T03:17:08;10.43;;;7.50;;
4102;SDS011;2065;49.790;9.620;2023-05-02T03:19:36;10.00;;;6.90;;
4102;SDS011;2065;49.790;9.620;2023-05-02T03:22:04;10.83;;;7.10;;
4102;SDS011;2065;49.790;9.620;2023-05-02T03:24:35;10.67;;;7.00;;
4102;SDS011;2065;49.790;9.620;2023-05-02T03:27:03;10.70;;;6.70;;
4102;SDS011;2065;49.790;9.620;2023-05-02T03:29:36;10.37;;;7.57;;
4102;SDS011;2065;49.790;9.620;2023-05-02T03:32:03;8.43;;;7.20;;
4102;SDS011;2065;49.790;9.620;2023-05-02T03:34:30;9.17;;;7.27;;
4102;SDS011;2065;49.790;9.620;2023-05-02T03:36:57;10.47;;;8.07;;
4102;SDS011;2065;49.790;9.620;2023-05-02T03:39:25;7.70;;;6.60;;
4102;SDS011;2065;49.790;9.620;2023-05-02T03:41:53;9.47;;;7.27;;
4102;SDS011;2065;49.790;9.620;2023-05-02T03:44:22;8.77;;;7.47;;
4102;SDS011;2065;49.790;9.620;2023-05-02T03:46:49;7.60;;;6.80;;
4102;SDS011;2065;49.790;9.620;2023-05-02T03:49:16;8.50;;;7.10;;
4102;SDS011;2065;49.790;9.620;2023-05-02T03:51:45;9.23;;;6.67;;
4102;SDS011;2065;49.790;9.620;2023-05-02T03:54:17;7.43;;;6.60;;
4102;SDS011;2065;49.790;9.620;2023-05-02T03:56:44;9.30;;;7.07;;
4102;SDS011;2065;49.790;9.620;2023-05-02T03:59:20;10.13;;;7.07;;
4102;SDS011;2065;49.790;9.620;2023-05-02T04:01:47;7.73;;;6.73;;
4102;SDS011;2065;49.790;9.620;2023-05-02T04:04:16;11.30;;;6.90;;
4102;SDS011;2065;49.790;9.620;2023-05-02T04:06:48;8.60;;;6.80;;
4102;SDS011;2065;49.790;9.620;2023-05-02T04:09:15;7.53;;;6.80;;
4102;SDS011;2065;49.790;9.620;2023-05-02T04:11:51;10.47;;;6.83;;
4102;SDS011;2065;49.790;9.620;2023-05-02T04:14:20;9.00;;;7.30;;
4102;SDS011;2065;49.790;9.620;2023-05-02T04:16:50;8.73;;;6.37;;
4102;SDS011;2065;49.790;9.620;2023-05-02T04:19:24;9.00;;;7.87;;
4102;SDS011;2065;49.790;9.620;2023-05-02T04:21:51;9.37;;;7.80;;
4102;SDS011;2065;49.790;9.620;2023-05-02T04:24:18;101.07;;;51.37;;
4102;SDS011;2065;49.790;9.620;2023-05-02T04:26:45;74.80;;;46.93;;
4102;SDS011;2065;49.790;9.620;2023-05-02T04:29:13;95.10;;;61.20;;
4102;SDS011;2065;49.790;9.620;2023-05-02T04:31:42;59.03;;;40.93;;
4102;SDS011;2065;49.790;9.620;2023-05-02T04:34:11;37.60;;;26.33;;
4102;SDS011;2065;49.790;9.620;2023-05-02T04:36:43;44.10;;;30.03;;
4102;SDS011;2065;49.790;9.620;2023-05-02T04:39:13;31.00;;;23.57;;
4102;SDS011;2065;49.790;9.620;2023-05-02T04:41:46;14.47;;;11.33;;
4102;SDS011;2065;49.790;9.620;2023-05-02T04:44:14;15.20;;;8.20;;
4102;SDS011;2065;49.790;9.620;2023-05-02T04:46:43;14.10;;;10.40;;
4102;SDS011;2065;49.790;9.620;2023-05-02T04:49:11;13.30;;;11.40;;
4102;SDS011;2065;49.790;9.620;2023-05-02T04:51:38;13.17;;;11.07;;
4102;SDS011;2065;49.790;9.620;2023-05-02T04:54:05;12.00;;;9.73;;
4102;SDS011;2065;49.790;9.620;2023-05-02T04:56:32;11.53;;;10.30;;
4102;SDS011;2065;49.790;9.620;2023-05-02T04:59:00;12.33;;;9.97;;
4102;SDS011;2065;49.790;9.620;2023-05-02T05:01:27;12.63;;;9.90;;
4102;SDS011;2065;49.790;9.620;2023-05-02T05:03:55;12.83;;;9.17;;
4102;SDS011;2065;49.790;9.620;2023-05-02T05:06:22;15.37;;;11.10;;
4102;SDS011;2065;49.790;9.620;2023-05-02T05:08:50;12.10;;;10.40;;
4102;SDS011;2065;49.790;9.620;2023-05-02T05:11:17;12.87;;;10.90;;
4102;SDS011;2065;49.790;9.620;2023-05-02T05:13:45;15.80;;;12.10;;
4102;SDS011;2065;49.790;9.620;2023-05-02T05:16:13;19.17;;;13.33;;
4102;SDS011;2065;49.790;9.620;2023-05-02T05:18:41;15.10;;;11.40;;
4102;SDS011;2065;49.790;9.620;2023-05-02T05:21:12;32.70;;;14.60;;
4102;SDS011;2065;49.790;9.620;2023-05-02T05:23:39;20.37;;;12.37;;
4102;SDS011;2065;49.790;9.620;2023-05-02T05:26:11;18.60;;;11.50;;
4102;SDS011;2065;49.790;9.620;2023-05-02T05:28:41;15.20;;;10.50;;
4102;SDS011;2065;49.790;9.620;2023-05-02T05:31:10;16.90;;;10.93;;
4102;SDS011;2065;49.790;9.620;2023-05-02T05:33:38;15.20;;;10.67;;
4102;SDS011;2065;49.790;9.620;2023-05-02T05:36:08;16.93;;;12.07;;
4102;SDS011;2065;49.790;9.620;2023-05-02T05:38:37;20.87;;;12.17;;
4102;SDS011;2065;49.790;9.620;2023-05-02T05:41:05;15.73;;;10.93;;
4102;SDS011;2065;49.790;9.620;2023-05-02T05:43:35;12.33;;;8.30;;
4102;SDS011;2065;49.790;9.620;2023-05-02T05:46:02;15.27;;;8.53;;
4102;SDS011;2065;49.790;9.620;2023-05-02T05:48:31;13.80;;;8.83;;
4102;SDS011;2065;49.790;9.620;2023-05-02T05:51:01;13.03;;;8.07;;
4102;SDS011;2065;49.790;9.620;2023-05-02T05:53:29;8.13;;;7.33;;
4102;SDS011;2065;49.790;9.620;2023-05-02T05:55:58;8.47;;;7.57;;
4102;SDS011;2065;49.790;9.620;2023-05-02T05:58:33;9.60;;;7.60;;
4102;SDS011;2065;49.790;9.620;2023-05-02T06:01:00;9.43;;;8.30;;
4102;SDS011;2065;49.790;9.620;2023-05-02T06:03:27;7.70;;;6.90;;
4102;SDS011;2065;49.790;9.620;2023-05-02T06:05:55;13.70;;;8.00;;
4102;SDS011;2065;49.790;9.620;2023-05-02T06:08:22;8.90;;;8.00;;
4102;SDS011;2065;49.790;9.620;2023-05-02T06:10:49;8.70;;;6.60;;
4102;SDS011;2065;49.790;9.620;2023-05-02T06:13:17;12.30;;;8.53;;
4102;SDS011;2065;49.790;9.620;2023-05-02T06:15:46;10.30;;;7.97;;
4102;SDS011;2065;49.790;9.620;2023-05-02T06:18:13;17.80;;;8.63;;
4102;SDS011;2065;49.790;9.620;2023-05-02T06:20:41;9.97;;;7.77;;
4102;SDS011;2065;49.790;9.620;2023-05-02T06:23:08;9.83;;;7.77;;
4102;SDS011;2065;49.790;9.620;2023-05-02T06:25:38;9.43;;;8.43;;
4102;SDS011;2065;49.790;9.620;2023-05-02T06:28:05;10.50;;;8.90;;
4102;SDS011;2065;49.790;9.620;2023-05-02T06:30:35;10.60;;;8.97;;
4102;SDS011;2065;49.790;9.620;2023-05-02T06:33:02;12.30;;;8.37;;
4102;SDS011;2065;49.790;9.620;2023-05-02T06:35:30;9.63;;;8.30;;
4102;SDS011;2065;49.790;9.620;2023-05-02T06:37:57;11.60;;;8.93;;
4102;SDS011;2065;49.790;9.620;2023-05-02T06:40:24;10.93;;;9.03;;
4102;SDS011;2065;49.790;9.620;2023-05-02T06:42:51;13.23;;;10.20;;
4102;SDS011;2065;49.790;9.620;2023-05-02T06:45:18;12.10;;;9.93;;
4102;SDS011;2065;49.790;9.620;2023-05-02T06:47:46;15.73;;;11.80;;
4102;SDS011;2065;49.790;9.620;2023-05-02T06:50:13;15.27;;;11.30;;
4102;SDS011;2065;49.790;9.620;2023-05-02T06:52:41;16.80;;;12.00;;
4102;SDS011;2065;49.790;9.620;2023-05-02T06:55:08;20.30;;;13.20;;
4102;SDS011;2065;49.790;9.620;2023-05-02T06:57:35;21.97;;;15.50;;
4102;SDS011;2065;49.790;9.620;2023-05-02T07:00:02;22.43;;;15.50;;
4102;SDS011;2065;49.790;9.620;2023-05-02T07:02:30;22.37;;;16.40;;
4102;SDS011;2065;49.790;9.620;2023-05-02T07:04:58;19.10;;;14.50;;
4102;SDS011;2065;49.790;9.620;2023-05-02T07:07:25;21.40;;;16.87;;
4102;SDS011;2065;49.790;9.620;2023-05-02T07:09:52;23.37;;;15.17;;
4102;SDS011;2065;49.790;9.620;2023-05-02T07:12:19;22.70;;;15.80;;
4102;SDS011;2065;49.790;9.620;2023-05-02T07:14:46;19.10;;;15.27;;
4102;SDS011;2065;49.790;9.620;2023-05-02T07:17:13;22.90;;;15.77;;
4102;SDS011;2065;49.790;9.620;2023-05-02T07:19:40;22.67;;;14.67;;
4102;SDS011;2065;49.790;9.620;2023-05-02T07:22:09;21.70;;;15.00;;
4102;SDS011;2065;49.790;9.620;2023-05-02T07:24:39;18.13;;;13.63;;
4102;SDS011;2065;49.790;9.620;2023-05-02T07:27:07;19.80;;;13.63;;
4102;SDS011;2065;49.790;9.620;2023-05-02T07:29:34;16.63;;;12.77;;
4102;SDS011;2065;49.790;9.620;2023-05-02T07:32:01;20.20;;;15.23;;
4102;SDS011;2065;49.790;9.620;2023-05-02T07:34:29;19.30;;;14.47;;
4102;SDS011;2065;49.790;9.620;2023-05-02T07:36:56;18.33;;;14.00;;
4102;SDS011;2065;49.790;9.620;2023-05-02T07:39:25;20.03;;;12.80;;
4102;SDS011;2065;49.790;9.620;2023-05-02T07:41:52;16.93;;;13.10;;
4102;SDS011;2065;49.790;9.620;2023-05-02T07:44:20;15.20;;;11.73;;
4102;SDS011;2065;49.790;9.620;2023-05-02T07:46:47;17.10;;;11.77;;
4102;SDS011;2065;49.790;9.620;2023-05-02T07:49:14;21.47;;;11.70;;
4102;SDS011;2065;49.790;9.620;2023-05-02T07:51:41;17.03;;;12.53;;
4102;SDS011;2065;49.790;9.620;2023-05-02T07:54:16;17.33;;;12.37;;
4102;SDS011;2065;49.790;9.620;2023-05-02T07:56:44;14.23;;;10.97;;
4102;SDS011;2065;49.790;9.620;2023-05-02T07:59:13;15.50;;;10.63;;
4102;SDS011;2065;49.790;9.620;2023-05-02T08:01:40;13.70;;;11.37;;
4102;SDS011;2065;49.790;9.620;2023-05-02T08:04:07;14.57;;;11.00;;
4102;SDS011;2065;49.790;9.620;2023-05-02T08:06:35;15.47;;;11.13;;
4102;SDS011;2065;49.790;9.620;2023-05-02T08:09:03;14.10;;;10.67;;
4102;SDS011;2065;49.790;9.620;2023-05-02T08:11:30;14.50;;;11.23;;
4102;SDS011;2065;49.790;9.620;2023-05-02T08:13:58;14.57;;;10.53;;
4102;SDS011;2065;49.790;9.620;2023-05-02T08:16:25;14.73;;;11.03;;
4102;SDS011;2065;49.790;9.620;2023-05-02T08:18:52;15.20;;;9.67;;
4102;SDS011;2065;49.790;9.620;2023-05-02T08:21:19;14.13;;;10.87;;
4102;SDS011;2065;49.790;9.620;2023-05-02T08:23:46;12.43;;;10.53;;
4102;SDS011;2065;49.790;9.620;2023-05-02T08:26:13;13.87;;;10.93;;
4102;SDS011;2065;49.790;9.620;2023-05-02T08:28:43;11.80;;;10.00;;
4102;SDS011;2065;49.790;9.620;2023-05-02T08:31:11;14.70;;;9.77;;
4102;SDS011;2065;49.790;9.620;2023-05-02T08:33:38;13.00;;;10.13;;
4102;SDS011;2065;49.790;9.620;2023-05-02T08:36:09;13.67;;;10.60;;
4102;SDS011;2065;49.790;9.620;2023-05-02T08:38:37;15.97;;;10.40;;
4102;SDS011;2065;49.790;9.620;2023-05-02T08:41:08;14.27;;;10.67;;
4102;SDS011;2065;49.790;9.620;2023-05-02T08:43:36;14.43;;;10.00;;
4102;SDS011;2065;49.790;9.620;2023-05-02T08:46:04;12.33;;;10.50;;
4102;SDS011;2065;49.790;9.620;2023-05-02T08:48:35;12.37;;;9.40;;
4102;SDS011;2065;49.790;9.620;2023-05-02T08:51:03;12.37;;;8.87;;
4102;SDS011;2065;49.790;9.620;2023-05-02T08:53:37;11.17;;;9.60;;
4102;SDS011;2065;49.790;9.620;2023-05-02T08:56:05;10.77;;;9.27;;
4102;SDS011;2065;49.790;9.620;2023-05-02T08:58:33;11.63;;;9.20;;
4102;SDS011;2065;49.790;9.620;2023-05-02T09:01:01;11.70;;;9.93;;
4102;SDS011;2065;49.790;9.620;2023-05-02T09:03:35;10.83;;;8.50;;
4102;SDS011;2065;49.790;9.620;2023-05-02T09:06:06;11.47;;;8.00;;
4102;SDS011;2065;49.790;9.620;2023-05-02T09:08:35;12.20;;;9.03;;
4102;SDS011;2065;49.790;9.620;2023-05-02T09:11:03;18.27;;;10.37;;
4102;SDS011;2065;49.790;9.620;2023-05-02T09:13:30;21.53;;;9.20;;
4102;SDS011;2065;49.790;9.620;2023-05-02T09:15:59;13.27;;;9.80;;
4102;SDS011;2065;49.790;9.620;2023-05-02T09:18:28;12.30;;;9.70;;
4102;SDS011;2065;49.790;9.620;2023-05-02T09:20:58;10.00;;;7.73;;
4102;SDS011;2065;49.790;9.620;2023-05-02T09:23:34;10.83;;;9.00;;
4102;SDS011;2065;49.790;9.620;2023-05-02T09:26:09;12.90;;;7.97;;
4102;SDS011;2065;49.790;9.620;2023-05-02T09:28:37;10.43;;;8.83;;
4102;SDS011;2065;49.790;9.620;2023-05-02T09:31:06;16.30;;;7.30;;
4102;SDS011;2065;49.790;9.620;2023-05-02T09:33:34;11.33;;;8.10;;
4102;SDS011;2065;49.790;9.620;2023-05-02T09:36:03;9.23;;;8.17;;
4102;SDS011;2065;49.790;9.620;2023-05-02T09:38:31;10.30;;;8.20;;
4102;SDS011;2065;49.790;9.620;2023-05-02T09:40:59;8.03;;;7.10;;
4102;SDS011;2065;49.790;9.620;2023-05-02T09:43:27;7.37;;;6.63;;
4102;SDS011;2065;49.790;9.620;2023-05-02T09:45:56;10.07;;;6.63;;
4102;SDS011;2065;49.790;9.620;2023-05-02T09:48:25;10.07;;;6.60;;
4102;SDS011;2065;49.790;9.620;2023-05-02T09:50:53;10.60;;;5.63;;
4102;SDS011;2065;49.790;9.620;2023-05-02T09:53:21;5.50;;;4.57;;
4102;SDS011;2065;49.790;9.620;2023-05-02T09:56:01;6.30;;;4.87;;
4102;SDS011;2065;49.790;9.620;2023-05-02T09:58:28;6.23;;;5.63;;
4102;SDS011;2065;49.790;9.620;2023-05-02T10:00:57;7.17;;;5.43;;
4102;SDS011;2065;49.790;9.620;2023-05-02T10:03:25;11.57;;;5.80;;
4102;SDS011;2065;49.790;9.620;2023-05-02T10:05:53;9.13;;;6.63;;
4102;SDS011;2065;49.790;9.620;2023-05-02T10:08:23;9.53;;;5.37;;
4102;SDS011;2065;49.790;9.620;2023-05-02T10:10:52;9.37;;;5.30;;
4102;SDS011;2065;49.790;9.620;2023-05-02T10:13:21;6.70;;;6.00;;
4102;SDS011;2065;49.790;9.620;2023-05-02T10:15:53;7.90;;;6.10;;
4102;SDS011;2065;49.790;9.620;2023-05-02T10:18:27;11.03;;;6.30;;
4102;SDS011;2065;49.790;9.620;2023-05-02T10:20:59;9.93;;;7.77;;
4102;SDS011;2065;49.790;9.620;2023-05-02T10:23:32;10.07;;;7.60;;
4102;SDS011;2065;49.790;9.620;2023-05-02T10:26:00;10.60;;;7.30;;
4102;SDS011;2065;49.790;9.620;2023-05-02T10:28:28;9.73;;;7.37;;
4102;SDS011;2065;49.790;9.620;2023-05-02T10:30:55;10.20;;;7.37;;
4102;SDS011;2065;49.790;9.620;2023-05-02T10:33:25;11.27;;;7.87;;
4102;SDS011;2065;49.790;9.620;2023-05-02T10:35:54;9.50;;;7.40;;
4102;SDS011;2065;49.790;9.620;2023-05-02T10:38:21;10.43;;;7.43;;
4102;SDS011;2065;49.790;9.620;2023-05-02T10:40:50;9.53;;;6.70;;
4102;SDS011;2065;49.790;9.620;2023-05-02T10:43:22;9.90;;;7.67;;
4102;SDS011;2065;49.790;9.620;2023-05-02T10:45:51;12.03;;;8.53;;
4102;SDS011;2065;49.790;9.620;2023-05-02T10:48:19;9.30;;;7.10;;
4102;SDS011;2065;49.790;9.620;2023-05-02T10:50:50;11.00;;;6.90;;
4102;SDS011;2065;49.790;9.620;2023-05-02T10:53:21;6.87;;;5.83;;
4102;SDS011;2065;49.790;9.620;2023-05-02T10:58:51;10.97;;;6.37;;
4102;SDS011;2065;49.790;9.620;2023-05-02T11:01:32;6.73;;;5.37;;
4102;SDS011;2065;49.790;9.620;2023-05-02T11:04:10;7.40;;;5.30;;
4102;SDS011;2065;49.790;9.620;2023-05-02T11:09:38;9.80;;;5.87;;
4102;SDS011;2065;49.790;9.620;2023-05-02T11:12:05;6.80;;;5.83;;
4102;SDS011;2065;49.790;9.620;2023-05-02T11:14:43;6.17;;;4.83;;
4102;SDS011;2065;49.790;9.620;2023-05-02T11:17:15;5.20;;;4.60;;
4102;SDS011;2065;49.790;9.620;2023-05-02T11:22:50;6.00;;;4.13;;
4102;SDS011;2065;49.790;9.620;2023-05-02T11:25:28;6.77;;;4.10;;
4102;SDS011;2065;49.790;9.620;2023-05-02T11:27:56;6.70;;;4.50;;
4102;SDS011;2065;49.790;9.620;2023-05-02T11:30:37;5.67;;;4.27;;
4102;SDS011;2065;49.790;9.620;2023-05-02T11:33:15;5.97;;;4.57;;
4102;SDS011;2065;49.790;9.620;2023-05-02T11:35:44;3.97;;;3.57;;
4102;SDS011;2065;49.790;9.620;2023-05-02T11:38:19;5.10;;;4.10;;
4102;SDS011;2065;49.790;9.620;2023-05-02T11:40:56;6.03;;;3.77;;
4102;SDS011;2065;49.790;9.620;2023-05-02T11:43:25;6.73;;;4.50;;
4102;SDS011;2065;49.790;9.620;2023-05-02T11:45:55;4.40;;;4.00;;
4102;SDS011;2065;49.790;9.620;2023-05-02T11:48:24;4.37;;;3.97;;
4102;SDS011;2065;49.790;9.620;2023-05-02T11:50:53;4.80;;;3.70;;
4102;SDS011;2065;49.790;9.620;2023-05-02T11:53:22;4.20;;;3.80;;
4102;SDS011;2065;49.790;9.620;2023-05-02T11:55:51;3.77;;;3.47;;
4102;SDS011;2065;49.790;9.620;2023-05-02T11:58:19;4.80;;;3.57;;
4102;SDS011;2065;49.790;9.620;2023-05-02T12:00:47;4.37;;;3.30;;
4102;SDS011;2065;49.790;9.620;2023-05-02T12:06:08;4.10;;;3.30;;
4102;SDS011;2065;49.790;9.620;2023-05-02T12:08:36;3.27;;;2.97;;
4102;SDS011;2065;49.790;9.620;2023-05-02T12:11:03;3.63;;;3.10;;
4102;SDS011;2065;49.790;9.620;2023-05-02T12:13:30;3.30;;;3.00;;
4102;SDS011;2065;49.790;9.620;2023-05-02T12:15:58;6.20;;;3.87;;
4102;SDS011;2065;49.790;9.620;2023-05-02T12:18:26;4.17;;;3.60;;
4102;SDS011;2065;49.790;9.620;2023-05-02T12:20:54;11.17;;;7.47;;
4102;SDS011;2065;49.790;9.620;2023-05-02T12:23:23;12.47;;;6.23;;
4102;SDS011;2065;49.790;9.620;2023-05-02T12:25:51;4.00;;;3.60;;
4102;SDS011;2065;49.790;9.620;2023-05-02T12:28:19;3.83;;;3.17;;
4102;SDS011;2065;49.790;9.620;2023-05-02T12:30:48;4.27;;;3.20;;
4102;SDS011;2065;49.790;9.620;2023-05-02T12:33:16;3.40;;;3.10;;
4102;SDS011;2065;49.790;9.620;2023-05-02T12:35:43;4.13;;;3.60;;
4102;SDS011;2065;49.790;9.620;2023-05-02T12:38:14;6.70;;;4.67;;
4102;SDS011;2065;49.790;9.620;2023-05-02T12:40:46;3.63;;;3.33;;
4102;SDS011;2065;49.790;9.620;2023-05-02T12:43:15;2.90;;;2.60;;
4102;SDS011;2065;49.790;9.620;2023-05-02T12:45:42;4.97;;;3.40;;
4102;SDS011;2065;49.790;9.620;2023-05-02T12:48:16;4.20;;;3.13;;
4102;SDS011;2065;49.790;9.620;2023-05-02T12:50:48;3.90;;;3.50;;
4102;SDS011;2065;49.790;9.620;2023-05-02T12:53:16;4.63;;;3.40;;
4102;SDS011;2065;49.790;9.620;2023-05-02T12:56:03;3.10;;;2.80;;
4102;SDS011;2065;49.790;9.620;2023-05-02T12:58:30;3.60;;;2.90;;
4102;SDS011;2065;49.790;9.620;2023-05-02T13:01:06;3.70;;;3.00;;
4102;SDS011;2065;49.790;9.620;2023-05-02T13:03:33;5.43;;;3.30;;
4102;SDS011;2065;49.790;9.620;2023-05-02T13:06:00;6.53;;;2.60;;
4102;SDS011;2065;49.790;9.620;2023-05-02T13:08:29;3.87;;;3.03;;
4102;SDS011;2065;49.790;9.620;2023-05-02T13:10:57;4.60;;;2.43;;
4102;SDS011;2065;49.790;9.620;2023-05-02T13:13:24;2.80;;;2.60;;
4102;SDS011;2065;49.790;9.620;2023-05-02T13:15:51;3.83;;;2.70;;
4102;SDS011;2065;49.790;9.620;2023-05-02T13:18:18;3.10;;;2.80;;
4102;SDS011;2065;49.790;9.620;2023-05-02T13:20:45;4.40;;;2.67;;
4102;SDS011;2065;49.790;9.620;2023-05-02T13:23:13;2.63;;;2.40;;
4102;SDS011;2065;49.790;9.620;2023-05-02T13:25:42;2.63;;;2.43;;
4102;SDS011;2065;49.790;9.620;2023-05-02T13:28:09;4.60;;;2.20;;
4102;SDS011;2065;49.790;9.620;2023-05-02T13:30:36;4.00;;;2.50;;
4102;SDS011;2065;49.790;9.620;2023-05-02T13:33:03;2.50;;;2.27;;
4102;SDS011;2065;49.790;9.620;2023-05-02T13:35:30;2.37;;;2.10;;
4102;SDS011;2065;49.790;9.620;2023-05-02T13:37:57;2.20;;;1.97;;
4102;SDS011;2065;49.790;9.620;2023-05-02T13:40:24;2.97;;;2.20;;
4102;SDS011;2065;49.790;9.620;2023-05-02T13:42:52;2.30;;;1.90;;
4102;SDS011;2065;49.790;9.620;2023-05-02T13:45:19;2.20;;;2.00;;
4102;SDS011;2065;49.790;9.620;2023-05-02T13:47:46;2.27;;;2.07;;
4102;SDS011;2065;49.790;9.620;2023-05-02T13:50:13;2.10;;;1.87;;
4102;SDS011;2065;49.790;9.620;2023-05-02T13:52:40;1.87;;;1.73;;
4102;SDS011;2065;49.790;9.620;2023-05-02T13:55:07;2.77;;;2.20;;
4102;SDS011;2065;49.790;9.620;2023-05-02T13:57:35;1.80;;;1.60;;
4102;SDS011;2065;49.790;9.620;2023-05-02T14:00:03;2.13;;;1.87;;
4102;SDS011;2065;49.790;9.620;2023-05-02T14:02:33;1.67;;;1.57;;
4102;SDS011;2065;49.790;9.620;2023-05-02T14:05:01;2.07;;;1.70;;
4102;SDS011;2065;49.790;9.620;2023-05-02T14:07:28;2.30;;;1.50;;
4102;SDS011;2065;49.790;9.620;2023-05-02T14:09:55;2.00;;;1.70;;
4102;SDS011;2065;49.790;9.620;2023-05-02T14:12:22;2.70;;;1.90;;
4102;SDS011;2065;49.790;9.620;2023-05-02T14:14:49;1.90;;;1.80;;
4102;SDS011;2065;49.790;9.620;2023-05-02T14:17:17;3.40;;;1.70;;
4102;SDS011;2065;49.790;9.620;2023-05-02T14:19:45;3.87;;;1.77;;
4102;SDS011;2065;49.790;9.620;2023-05-02T14:22:12;2.07;;;1.90;;
4102;SDS011;2065;49.790;9.620;2023-05-02T14:24:40;3.90;;;2.27;;
4102;SDS011;2065;49.790;9.620;2023-05-02T14:27:07;5.70;;;2.63;;
4102;SDS011;2065;49.790;9.620;2023-05-02T14:29:37;3.73;;;2.60;;
4102;SDS011;2065;49.790;9.620;2023-05-02T14:32:04;4.77;;;2.90;;
4102;SDS011;2065;49.790;9.620;2023-05-02T14:34:32;3.80;;;2.80;;
4102;SDS011;2065;49.790;9.620;2023-05-02T14:37:00;5.30;;;3.03;;
4102;SDS011;2065;49.790;9.620;2023-05-02T14:39:27;2.87;;;2.60;;
4102;SDS011;2065;49.790;9.620;2023-05-02T14:41:54;4.13;;;2.57;;
4102;SDS011;2065;49.790;9.620;2023-05-02T14:44:20;3.17;;;2.60;;
4102;SDS011;2065;49.790;9.620;2023-05-02T14:46:48;3.63;;;2.60;;
4102;SDS011;2065;49.790;9.620;2023-05-02T14:49:15;2.90;;;2.40;;
4102;SDS011;2065;49.790;9.620;2023-05-02T14:51:44;3.67;;;2.50;;
4102;SDS011;2065;49.790;9.620;2023-05-02T14:54:11;2.93;;;2.33;;
4102;SDS011;2065;49.790;9.620;2023-05-02T14:56:39;4.60;;;2.63;;
4102;SDS011;2065;49.790;9.620;2023-05-02T14:59:06;4.00;;;2.60;;
4102;SDS011;2065;49.790;9.620;2023-05-02T15:01:33;3.97;;;2.47;;
4102;SDS011;2065;49.790;9.620;2023-05-02T15:04:02;3.63;;;2.53;;
4102;SDS011;2065;49.790;9.620;2023-05-02T15:06:29;6.17;;;2.77;;
4102;SDS011;2065;49.790;9.620;2023-05-02T15:08:57;3.10;;;2.70;;
4102;SDS011;2065;49.790;9.620;2023-05-02T15:11:24;3.10;;;2.17;;
4102;SDS011;2065;49.790;9.620;2023-05-02T15:13:51;3.77;;;2.83;;
4102;SDS011;2065;49.790;9.620;2023-05-02T15:16:18;2.40;;;2.00;;
4102;SDS011;2065;49.790;9.620;2023-05-02T15:18:45;2.00;;;1.70;;
4102;SDS011;2065;49.790;9.620;2023-05-02T15:21:12;2.87;;;2.17;;
4102;SDS011;2065;49.790;9.620;2023-05-02T15:23:40;1.97;;;1.80;;
4102;SDS011;2065;49.790;9.620;2023-05-02T15:26:09;2.03;;;1.83;;
4102;SDS011;2065;49.790;9.620;2023-05-02T15:28:36;2.57;;;1.63;;
4102;SDS011;2065;49.790;9.620;2023-05-02T15:31:03;3.10;;;2.90;;